E.r.brandenburg — A8SZ5 — position and weather

sailwx.info

Track history (hours):
 
Tides and Currents Weather Stations Pressure Air Temp Water Temp Dewpoint Dewpoint Depression Visibility Wind Speed Wind Dir Waves Ship Positions

E.r.brandenburg

Last reported at 2015-Aug-12 03:33 UTC. Time now 2015-Aug-29 23:39 UTC.
Position N 34°04' E 134°58'.
Warning: this ship's position is 17 days out of date.

Length 292 m; draft 11.4 m.

Type: Ship. MMSI: 636091798.

Date/timePositionNaut miles runAvg speedWind from/ knotsBaromVisibWave heightAir tempDewpointWater temp
2015-Aug-12 03:33N 34°04' E 134°58'1513.4
2015-Aug-12 02:26N 34°19' E 134°59'1315.2
2015-Aug-12 01:33N 34°31' E 135°05'9 8.6
2015-Aug-12 00:31N 34°36' E 134°56'1411.9
2015-Aug-11 23:20N 34°40' E 134°40'  
2015-Aug-08 07:33N 34°40' E 134°39'8 8.3
2015-Aug-08 06:33N 34°33' E 134°46'1312.6
2015-Aug-08 05:32N 34°38' E 135°00'8 8.1
2015-Aug-08 04:33N 34°33' E 135°08'9 8.6
2015-Aug-08 03:33N 34°25' E 135°05'1212.4
2015-Aug-08 02:34N 34°14' E 134°60'1010.4
2015-Aug-08 01:34N 34°03' E 134°59'22210.0
2015-Aug-07 03:19N 34°53' E 139°22'912.1
2015-Aug-07 02:33N 34°58' E 139°31'1212.0
2015-Aug-07 01:33N 35°05' E 139°43'1111.3
2015-Aug-07 00:33N 35°16' E 139°46'9 9.5
2015-Aug-06 23:33N 35°25' E 139°47'6 5.6
2015-Aug-06 22:33N 35°22' E 139°52'0 0.0
2015-Aug-06 21:31N 35°22' E 139°52'0 0.0
2015-Aug-06 20:31N 35°22' E 139°52'0 0.0
2015-Aug-06 19:31N 35°22' E 139°52'0 0.0
2015-Aug-06 18:31N 35°22' E 139°52'0 0.0
2015-Aug-06 17:31N 35°22' E 139°52'0 0.0
2015-Aug-06 16:28N 35°22' E 139°52'0 0.0
2015-Aug-06 15:31N 35°22' E 139°52'0 0.0
2015-Aug-06 14:31N 35°22' E 139°52'0 0.0
2015-Aug-06 13:31N 35°22' E 139°52'0 0.0
2015-Aug-06 12:31N 35°22' E 139°52'0 0.0
2015-Aug-06 11:28N 35°22' E 139°52'0 0.0
2015-Aug-06 10:31N 35°22' E 139°52'0 0.0
2015-Aug-06 09:31N 35°22' E 139°52'0 0.0
2015-Aug-06 08:31N 35°22' E 139°52'0 0.0
2015-Aug-06 07:31N 35°22' E 139°52'0 0.0
2015-Aug-06 06:31N 35°22' E 139°52'0 0.0
2015-Aug-06 05:31N 35°22' E 139°52'0 0.0
2015-Aug-06 04:31N 35°22' E 139°52'0 0.0
2015-Aug-06 03:31N 35°22' E 139°52'0 0.0
2015-Aug-06 02:31N 35°22' E 139°52'0 0.0
2015-Aug-06 01:31N 35°22' E 139°52'0 0.0
2015-Aug-06 00:31N 35°22' E 139°52'0 0.0
2015-Aug-05 23:31N 35°22' E 139°52'0 0.0
2015-Aug-05 22:31N 35°22' E 139°52'0 0.0
2015-Aug-05 21:31N 35°22' E 139°52'0 0.0
2015-Aug-05 20:31N 35°22' E 139°52'0 0.0
2015-Aug-05 19:28N 35°22' E 139°52'0 0.0
2015-Aug-05 18:31N 35°22' E 139°52'0 0.0
2015-Aug-05 17:31N 35°22' E 139°52'0 0.0
2015-Aug-05 16:31N 35°22' E 139°52'0 0.0
2015-Aug-05 15:31N 35°22' E 139°52'0 0.0
2015-Aug-05 14:31N 35°22' E 139°52'0 0.0
2015-Aug-05 13:28N 35°22' E 139°52'0 0.0
2015-Aug-05 12:31N 35°22' E 139°52'0 0.0
2015-Aug-05 11:31N 35°22' E 139°52'0 0.0
2015-Aug-05 10:31N 35°22' E 139°52'0 0.0
2015-Aug-05 09:25N 35°22' E 139°52'0 0.0
2015-Aug-05 08:31N 35°22' E 139°52'0 0.0
2015-Aug-05 07:31N 35°22' E 139°52'0 0.0
2015-Aug-05 06:31N 35°22' E 139°52'0 0.0
2015-Aug-05 05:31N 35°22' E 139°52'0 0.0
2015-Aug-05 04:31N 35°22' E 139°52'0 0.0
2015-Aug-05 03:28N 35°22' E 139°52'0 0.0
2015-Aug-05 02:31N 35°22' E 139°52'0 0.0
2015-Aug-05 01:31N 35°22' E 139°52'0 0.0
2015-Aug-05 00:31N 35°22' E 139°52'0 0.0
2015-Aug-04 23:31N 35°22' E 139°52'0 0.0
2015-Aug-04 22:31N 35°22' E 139°52'0 0.0
2015-Aug-04 21:31N 35°22' E 139°52'0 0.0
2015-Aug-04 20:31N 35°22' E 139°52'0 0.0
2015-Aug-04 19:31N 35°22' E 139°52'0 0.0
2015-Aug-04 18:31N 35°22' E 139°52'0 0.0
2015-Aug-04 17:31N 35°22' E 139°52'0 0.0
2015-Aug-04 16:31N 35°22' E 139°52'0 0.0
2015-Aug-04 15:28N 35°22' E 139°52'0 0.0
2015-Aug-04 14:25N 35°22' E 139°52'0 0.0
2015-Aug-04 13:31N 35°22' E 139°52'0 0.0
2015-Aug-04 12:31N 35°22' E 139°52'0 0.0
2015-Aug-04 11:31N 35°22' E 139°52'0 0.0
2015-Aug-04 10:31N 35°22' E 139°52'0 0.0
2015-Aug-04 09:28N 35°22' E 139°52'0 0.0
2015-Aug-04 08:31N 35°22' E 139°52'0 0.0
2015-Aug-04 07:31N 35°22' E 139°52'0 0.0
2015-Aug-04 06:31N 35°22' E 139°52'0 0.0
2015-Aug-04 05:31N 35°22' E 139°52'0 0.0
2015-Aug-04 04:31N 35°22' E 139°52'0 0.2
2015-Aug-04 03:31N 35°22' E 139°52'4 4.3
2015-Aug-04 02:33N 35°25' E 139°48'1 0.5
2015-Aug-04 01:33N 35°25' E 139°49'3 2.8
2015-Aug-04 00:33N 35°24' E 139°46'1010.0
2015-Aug-03 23:33N 35°14' E 139°47'8 8.0
2015-Aug-03 22:34N 35°06' E 139°45'7 6.7
2015-Aug-03 21:33N 34°60' E 139°42'6 6.3
2015-Aug-03 20:33N 34°53' E 139°41'5 5.1
2015-Aug-03 19:33N 34°48' E 139°40'8 7.8
2015-Aug-03 18:33N 34°41' E 139°41'1312.8
2015-Aug-03 17:33N 34°28' E 139°43'  
Track history (hours):
 
Tides and Currents Weather Stations Pressure Air Temp Water Temp Dewpoint Dewpoint Depression Visibility Wind Speed Wind Dir Waves Ship Positions

E.r.brandenburg

Last reported at 2015-Aug-12 03:33 UTC. Time now 2015-Aug-29 23:39 UTC.
Position N 34°04' E 134°58'.
Warning: this ship's position is 17 days out of date.

Length 292 m; draft 11.4 m.

Type: Ship. MMSI: 636091798.

Date/timePositionNaut miles runAvg speedWind from/ knotsBaromVisibWave heightAir tempDewpointWater temp
2015-Aug-12 03:33N 34°04' E 134°58'1513.4
2015-Aug-12 02:26N 34°19' E 134°59'1315.2
2015-Aug-12 01:33N 34°31' E 135°05'9 8.6
2015-Aug-12 00:31N 34°36' E 134°56'1411.9
2015-Aug-11 23:20N 34°40' E 134°40'  
2015-Aug-08 07:33N 34°40' E 134°39'8 8.3
2015-Aug-08 06:33N 34°33' E 134°46'1312.6
2015-Aug-08 05:32N 34°38' E 135°00'8 8.1
2015-Aug-08 04:33N 34°33' E 135°08'9 8.6
2015-Aug-08 03:33N 34°25' E 135°05'1212.4
2015-Aug-08 02:34N 34°14' E 134°60'1010.4
2015-Aug-08 01:34N 34°03' E 134°59'22210.0
2015-Aug-07 03:19N 34°53' E 139°22'912.1
2015-Aug-07 02:33N 34°58' E 139°31'1212.0
2015-Aug-07 01:33N 35°05' E 139°43'1111.3
2015-Aug-07 00:33N 35°16' E 139°46'9 9.5
2015-Aug-06 23:33N 35°25' E 139°47'6 5.6
2015-Aug-06 22:33N 35°22' E 139°52'0 0.0
2015-Aug-06 21:31N 35°22' E 139°52'0 0.0
2015-Aug-06 20:31N 35°22' E 139°52'0 0.0
2015-Aug-06 19:31N 35°22' E 139°52'0 0.0
2015-Aug-06 18:31N 35°22' E 139°52'0 0.0
2015-Aug-06 17:31N 35°22' E 139°52'0 0.0
2015-Aug-06 16:28N 35°22' E 139°52'0 0.0
2015-Aug-06 15:31N 35°22' E 139°52'0 0.0
2015-Aug-06 14:31N 35°22' E 139°52'0 0.0
2015-Aug-06 13:31N 35°22' E 139°52'0 0.0
2015-Aug-06 12:31N 35°22' E 139°52'0 0.0
2015-Aug-06 11:28N 35°22' E 139°52'0 0.0
2015-Aug-06 10:31N 35°22' E 139°52'0 0.0
2015-Aug-06 09:31N 35°22' E 139°52'0 0.0
2015-Aug-06 08:31N 35°22' E 139°52'0 0.0
2015-Aug-06 07:31N 35°22' E 139°52'0 0.0
2015-Aug-06 06:31N 35°22' E 139°52'0 0.0
2015-Aug-06 05:31N 35°22' E 139°52'0 0.0
2015-Aug-06 04:31N 35°22' E 139°52'0 0.0
2015-Aug-06 03:31N 35°22' E 139°52'0 0.0
2015-Aug-06 02:31N 35°22' E 139°52'0 0.0
2015-Aug-06 01:31N 35°22' E 139°52'0 0.0
2015-Aug-06 00:31N 35°22' E 139°52'0 0.0
2015-Aug-05 23:31N 35°22' E 139°52'0 0.0
2015-Aug-05 22:31N 35°22' E 139°52'0 0.0
2015-Aug-05 21:31N 35°22' E 139°52'0 0.0
2015-Aug-05 20:31N 35°22' E 139°52'0 0.0
2015-Aug-05 19:28N 35°22' E 139°52'0 0.0
2015-Aug-05 18:31N 35°22' E 139°52'0 0.0
2015-Aug-05 17:31N 35°22' E 139°52'0 0.0
2015-Aug-05 16:31N 35°22' E 139°52'0 0.0
2015-Aug-05 15:31N 35°22' E 139°52'0 0.0
2015-Aug-05 14:31N 35°22' E 139°52'0 0.0
2015-Aug-05 13:28N 35°22' E 139°52'0 0.0
2015-Aug-05 12:31N 35°22' E 139°52'0 0.0
2015-Aug-05 11:31N 35°22' E 139°52'0 0.0
2015-Aug-05 10:31N 35°22' E 139°52'0 0.0
2015-Aug-05 09:25N 35°22' E 139°52'0 0.0
2015-Aug-05 08:31N 35°22' E 139°52'0 0.0
2015-Aug-05 07:31N 35°22' E 139°52'0 0.0
2015-Aug-05 06:31N 35°22' E 139°52'0 0.0
2015-Aug-05 05:31N 35°22' E 139°52'0 0.0
2015-Aug-05 04:31N 35°22' E 139°52'0 0.0
2015-Aug-05 03:28N 35°22' E 139°52'0 0.0
2015-Aug-05 02:31N 35°22' E 139°52'0 0.0
2015-Aug-05 01:31N 35°22' E 139°52'0 0.0
2015-Aug-05 00:31N 35°22' E 139°52'0 0.0
2015-Aug-04 23:31N 35°22' E 139°52'0 0.0
2015-Aug-04 22:31N 35°22' E 139°52'0 0.0
2015-Aug-04 21:31N 35°22' E 139°52'0 0.0
2015-Aug-04 20:31N 35°22' E 139°52'0 0.0
2015-Aug-04 19:31N 35°22' E 139°52'0 0.0
2015-Aug-04 18:31N 35°22' E 139°52'0 0.0
2015-Aug-04 17:31N 35°22' E 139°52'0 0.0
2015-Aug-04 16:31N 35°22' E 139°52'0 0.0
2015-Aug-04 15:28N 35°22' E 139°52'0 0.0
2015-Aug-04 14:25N 35°22' E 139°52'0 0.0
2015-Aug-04 13:31N 35°22' E 139°52'0 0.0
2015-Aug-04 12:31N 35°22' E 139°52'0 0.0
2015-Aug-04 11:31N 35°22' E 139°52'0 0.0
2015-Aug-04 10:31N 35°22' E 139°52'0 0.0
2015-Aug-04 09:28N 35°22' E 139°52'0 0.0
2015-Aug-04 08:31N 35°22' E 139°52'0 0.0
2015-Aug-04 07:31N 35°22' E 139°52'0 0.0
2015-Aug-04 06:31N 35°22' E 139°52'0 0.0
2015-Aug-04 05:31N 35°22' E 139°52'0 0.0
2015-Aug-04 04:31N 35°22' E 139°52'0 0.2
2015-Aug-04 03:31N 35°22' E 139°52'4 4.3
2015-Aug-04 02:33N 35°25' E 139°48'1 0.5
2015-Aug-04 01:33N 35°25' E 139°49'3 2.8
2015-Aug-04 00:33N 35°24' E 139°46'1010.0
2015-Aug-03 23:33N 35°14' E 139°47'8 8.0
2015-Aug-03 22:34N 35°06' E 139°45'7 6.7
2015-Aug-03 21:33N 34°60' E 139°42'6 6.3
2015-Aug-03 20:33N 34°53' E 139°41'5 5.1
2015-Aug-03 19:33N 34°48' E 139°40'8 7.8
2015-Aug-03 18:33N 34°41' E 139°41'1312.8
2015-Aug-03 17:33N 34°28' E 139°43'  

Dump ship's entire track history